createdAt,value
2022-08-24T00:03:22.537Z,100
2022-08-24T00:13:22.464Z,100
2022-08-24T00:23:22.430Z,100
2022-08-24T00:33:22.436Z,100
2022-08-24T00:43:22.433Z,100
2022-08-24T00:53:22.418Z,100
2022-08-24T01:03:22.395Z,100
2022-08-24T01:13:23.989Z,100
2022-08-24T01:23:22.389Z,100
2022-08-24T01:33:22.366Z,100
2022-08-24T01:43:22.374Z,100
2022-08-24T01:53:22.352Z,100
2022-08-24T02:03:24.427Z,100
2022-08-24T02:13:22.382Z,100
2022-08-24T02:23:22.335Z,100
2022-08-24T02:33:22.344Z,100
2022-08-24T02:43:22.334Z,100
2022-08-24T02:53:22.324Z,100
2022-08-24T03:03:22.308Z,100
2022-08-24T03:13:22.316Z,100
2022-08-24T03:23:22.291Z,100
2022-08-24T03:33:22.261Z,100
2022-08-24T03:43:22.267Z,100
2022-08-24T03:53:22.269Z,100
2022-08-24T04:03:22.228Z,100
2022-08-24T04:13:22.254Z,100
2022-08-24T04:23:22.229Z,100
2022-08-24T04:33:22.219Z,100
2022-08-24T04:43:22.201Z,100
2022-08-24T04:53:22.203Z,100
2022-08-24T05:03:22.184Z,100
2022-08-24T05:13:22.173Z,100
2022-08-24T05:23:22.289Z,100
2022-08-24T05:33:22.160Z,100
2022-08-24T05:43:22.159Z,100
2022-08-24T05:53:22.151Z,100
2022-08-24T06:03:22.189Z,100
2022-08-24T06:13:22.166Z,100
2022-08-24T06:23:22.119Z,100
2022-08-24T06:33:22.121Z,100
2022-08-24T06:43:22.139Z,100
2022-08-24T06:53:22.110Z,100
2022-08-24T07:03:22.105Z,100
2022-08-24T07:13:22.234Z,98
2022-08-24T07:23:22.061Z,93
2022-08-24T07:33:22.085Z,95
2022-08-24T07:43:22.055Z,93
2022-08-24T07:53:27.780Z,85
2022-08-24T08:03:22.037Z,86
2022-08-24T08:13:22.028Z,84
2022-08-24T08:23:22.035Z,77
2022-08-24T08:33:22.060Z,74
2022-08-24T08:43:21.980Z,73
2022-08-24T08:53:21.984Z,75
2022-08-24T09:03:21.993Z,65
2022-08-24T09:13:21.964Z,62
2022-08-24T09:23:21.976Z,58
2022-08-24T09:33:21.933Z,58
2022-08-24T09:43:21.915Z,50
2022-08-24T09:53:21.931Z,50
2022-08-24T10:03:21.976Z,55
2022-08-24T10:13:21.911Z,50
2022-08-24T10:23:21.878Z,49
2022-08-24T10:33:22.034Z,46
2022-08-24T10:43:24.015Z,47
2022-08-24T10:53:21.850Z,44
2022-08-24T11:03:22.190Z,44
2022-08-24T11:13:21.820Z,45
2022-08-24T11:23:21.876Z,48
2022-08-24T11:33:21.789Z,43
2022-08-24T11:43:21.781Z,44
2022-08-24T11:53:21.789Z,42
2022-08-24T12:03:21.868Z,41
2022-08-24T12:13:21.745Z,42
2022-08-24T12:23:21.734Z,44
2022-08-24T12:33:21.698Z,42
2022-08-24T12:43:21.679Z,46
2022-08-24T12:53:21.708Z,44
2022-08-24T13:03:21.647Z,43
2022-08-24T13:13:21.701Z,42
2022-08-24T13:23:21.748Z,43
2022-08-24T13:33:21.633Z,43
2022-08-24T13:43:21.622Z,46
2022-08-24T13:53:21.599Z,46
2022-08-24T14:03:21.624Z,46
2022-08-24T14:13:25.947Z,47
2022-08-24T14:23:21.565Z,47
2022-08-24T14:33:21.569Z,46
2022-08-24T14:43:21.994Z,48
2022-08-24T14:53:21.535Z,47
2022-08-24T15:03:21.552Z,47
2022-08-24T15:13:21.513Z,50
2022-08-24T15:23:21.501Z,49
2022-08-24T15:33:21.476Z,48
2022-08-24T15:43:21.480Z,45
2022-08-24T15:53:21.465Z,46
2022-08-24T16:03:21.608Z,46
2022-08-24T16:13:21.438Z,44
2022-08-24T16:23:21.434Z,42
2022-08-24T16:33:21.408Z,46
2022-08-24T16:43:21.389Z,45
2022-08-24T16:53:21.402Z,50
2022-08-24T17:03:21.396Z,53
2022-08-24T17:13:46.037Z,56
2022-08-24T17:23:21.353Z,59
2022-08-24T17:33:21.341Z,65
2022-08-24T17:43:21.322Z,68
2022-08-24T17:53:21.325Z,70
2022-08-24T18:03:21.346Z,71
2022-08-24T18:13:21.378Z,72
2022-08-24T18:23:24.650Z,76
2022-08-24T18:33:21.282Z,75
2022-08-24T18:43:21.290Z,75
2022-08-24T18:53:21.237Z,85
2022-08-24T19:03:21.235Z,88
2022-08-24T19:13:21.221Z,93
2022-08-24T19:23:21.244Z,97
2022-08-24T19:33:21.192Z,94
2022-08-24T19:43:21.200Z,94
2022-08-24T19:53:21.179Z,96
2022-08-24T20:03:21.158Z,97
2022-08-24T20:13:21.326Z,96
2022-08-24T20:23:21.152Z,98
2022-08-24T20:33:21.176Z,100
2022-08-24T20:43:21.136Z,100
2022-08-24T20:53:21.123Z,100
2022-08-24T21:03:21.148Z,100
2022-08-24T21:13:21.073Z,100
2022-08-24T21:23:21.069Z,100
2022-08-24T21:33:24.364Z,100
2022-08-24T21:43:21.106Z,100
2022-08-24T21:53:21.048Z,100
2022-08-24T22:03:21.100Z,100
2022-08-24T22:13:21.013Z,100
2022-08-24T22:23:21.014Z,100
2022-08-24T22:33:21.003Z,100
2022-08-24T22:43:24.491Z,100
2022-08-24T22:53:20.988Z,100
2022-08-24T23:03:20.990Z,100
2022-08-24T23:13:21.123Z,100
2022-08-24T23:23:20.955Z,100
2022-08-24T23:33:20.925Z,100
2022-08-24T23:43:20.922Z,100
2022-08-24T23:53:20.924Z,100
